createdAt,value
2018-07-13T00:02:01.139Z,3.93
2018-07-13T00:06:04.616Z,3.77
2018-07-13T00:10:08.073Z,3.73
2018-07-13T00:14:27.062Z,3.60
2018-07-13T00:18:30.887Z,3.70
2018-07-13T00:22:34.379Z,3.87
2018-07-13T00:26:38.531Z,4.30
2018-07-13T00:30:41.991Z,4.07
2018-07-13T00:34:45.481Z,3.83
2018-07-13T00:38:48.939Z,4.00
2018-07-13T00:42:52.443Z,3.80
2018-07-13T00:46:55.911Z,3.87
2018-07-13T00:50:59.362Z,3.50
2018-07-13T00:55:02.816Z,3.70
2018-07-13T00:59:06.363Z,3.47
2018-07-13T01:03:10.771Z,3.53
2018-07-13T01:07:14.229Z,3.77
2018-07-13T01:11:17.776Z,3.80
2018-07-13T01:15:21.217Z,4.00
2018-07-13T01:19:24.654Z,3.73
2018-07-13T01:23:29.167Z,4.07
2018-07-13T01:27:32.634Z,3.80
2018-07-13T01:31:36.070Z,3.70
2018-07-13T01:35:39.559Z,3.77
2018-07-13T01:39:42.998Z,3.50
2018-07-13T01:43:46.500Z,3.57
2018-07-13T01:47:49.989Z,3.60
2018-07-13T01:51:53.493Z,3.47
2018-07-13T01:55:56.986Z,3.50
2018-07-13T02:00:00.410Z,3.33
2018-07-13T02:04:03.898Z,3.80
2018-07-13T02:08:07.363Z,3.80
2018-07-13T02:12:10.926Z,3.67
2018-07-13T02:16:14.423Z,3.70
2018-07-13T02:20:17.859Z,3.80
2018-07-13T02:24:21.438Z,3.60
2018-07-13T02:28:24.889Z,3.77
2018-07-13T02:32:28.324Z,3.63
2018-07-13T02:36:31.867Z,3.90
2018-07-13T02:40:35.428Z,3.90
2018-07-13T02:44:38.876Z,3.37
2018-07-13T02:48:42.352Z,3.70
2018-07-13T02:52:45.857Z,3.40
2018-07-13T02:56:49.311Z,3.57
2018-07-13T03:00:52.743Z,3.50
2018-07-13T03:04:56.195Z,3.83
2018-07-13T03:08:59.796Z,3.57
2018-07-13T03:13:03.269Z,3.60
2018-07-13T03:17:06.803Z,3.70
2018-07-13T03:21:10.234Z,3.40
2018-07-13T03:25:13.696Z,3.30
2018-07-13T03:29:17.138Z,3.30
2018-07-13T03:33:20.603Z,3.60
2018-07-13T03:37:24.020Z,3.40
2018-07-13T03:41:27.422Z,3.40
2018-07-13T03:45:30.884Z,3.60
2018-07-13T03:49:34.348Z,3.20
2018-07-13T03:53:37.828Z,4.10
2018-07-13T03:57:41.271Z,3.90
2018-07-13T04:01:44.758Z,4.00
2018-07-13T04:05:48.232Z,3.47
2018-07-13T04:09:51.718Z,3.50
2018-07-13T04:13:55.148Z,3.57
2018-07-13T04:17:58.620Z,3.70
2018-07-13T04:22:02.102Z,3.37
2018-07-13T04:26:05.545Z,3.77
2018-07-13T04:30:08.990Z,4.10
2018-07-13T04:34:12.594Z,3.67
2018-07-13T04:38:16.017Z,3.63
2018-07-13T04:42:19.460Z,3.60
2018-07-13T04:46:22.953Z,3.40
2018-07-13T04:50:26.442Z,3.40
2018-07-13T04:54:29.903Z,3.90
2018-07-13T04:58:33.354Z,3.73
2018-07-13T05:02:37.070Z,3.63
2018-07-13T05:06:40.487Z,3.60
2018-07-13T05:10:43.994Z,3.20
2018-07-13T05:14:47.425Z,3.60
2018-07-13T05:18:50.890Z,3.17
2018-07-13T05:22:54.356Z,3.57
2018-07-13T05:26:57.857Z,2.93
2018-07-13T05:31:01.353Z,3.23
2018-07-13T05:35:04.883Z,3.20
2018-07-13T05:39:10.413Z,3.53
2018-07-13T05:43:13.854Z,3.20
2018-07-13T05:47:17.277Z,3.20
2018-07-13T05:51:20.718Z,3.10
2018-07-13T05:55:24.366Z,3.35
2018-07-13T05:59:28.074Z,3.12
2018-07-13T06:03:32.549Z,3.20
2018-07-13T06:07:36.049Z,2.98
2018-07-13T06:11:39.970Z,3.00
2018-07-13T06:15:43.402Z,2.80
2018-07-13T06:19:47.231Z,3.10
2018-07-13T06:23:50.898Z,3.30
2018-07-13T06:27:54.415Z,3.00
2018-07-13T06:31:57.862Z,2.90
2018-07-13T06:36:01.380Z,3.20
2018-07-13T06:40:04.932Z,3.02
2018-07-13T06:44:08.413Z,2.85
2018-07-13T06:48:11.891Z,3.22
2018-07-13T06:52:15.342Z,2.92
2018-07-13T06:56:18.772Z,3.20
2018-07-13T07:00:57.909Z,3.20
2018-07-13T07:05:15.210Z,3.42
2018-07-13T07:09:18.671Z,3.15
2018-07-13T07:13:31.253Z,3.45
2018-07-13T07:17:34.927Z,3.20
2018-07-13T07:21:38.406Z,3.30
2018-07-13T07:25:41.845Z,3.22
2018-07-13T07:29:45.278Z,3.40
2018-07-13T07:33:48.655Z,3.60
2018-07-13T07:37:52.080Z,3.60
2018-07-13T07:41:55.521Z,3.17
2018-07-13T07:45:59.012Z,3.52
2018-07-13T07:50:02.536Z,3.10
2018-07-13T07:54:06.374Z,3.35
2018-07-13T07:58:09.825Z,3.33
2018-07-13T08:02:13.283Z,3.40
2018-07-13T08:06:16.850Z,3.33
2018-07-13T08:10:20.120Z,3.55
2018-07-13T08:14:23.555Z,2.92
2018-07-13T08:18:26.987Z,3.50
2018-07-13T08:22:40.088Z,3.12
2018-07-13T08:26:43.647Z,3.22
2018-07-13T08:30:51.615Z,3.47
2018-07-13T08:34:55.099Z,3.25
2018-07-13T08:38:58.534Z,3.35
2018-07-13T08:43:01.942Z,3.40
2018-07-13T08:47:05.357Z,3.10
2018-07-13T08:51:08.777Z,3.55
2018-07-13T08:55:13.591Z,3.20
2018-07-13T08:59:17.037Z,3.05
2018-07-13T09:03:20.532Z,3.65
2018-07-13T09:07:24.015Z,3.22
2018-07-13T09:11:27.482Z,3.58
2018-07-13T09:15:30.901Z,3.58
2018-07-13T09:19:34.356Z,3.30
2018-07-13T09:23:37.921Z,3.30
2018-07-13T09:27:41.760Z,3.15
2018-07-13T09:31:45.183Z,3.20
2018-07-13T09:35:48.675Z,2.70
2018-07-13T09:39:52.076Z,3.42
2018-07-13T09:43:55.550Z,3.50
2018-07-13T09:47:58.949Z,3.70
2018-07-13T09:52:02.424Z,3.40
2018-07-13T09:56:05.862Z,3.65
2018-07-13T10:00:11.417Z,3.30
2018-07-13T10:04:14.840Z,3.55
2018-07-13T10:08:18.286Z,3.60
2018-07-13T10:12:21.734Z,3.77
2018-07-13T10:16:25.158Z,3.67
2018-07-13T10:20:28.557Z,3.40
2018-07-13T10:24:33.108Z,3.22
2018-07-13T10:28:38.765Z,3.17
2018-07-13T10:32:43.575Z,3.17
2018-07-13T10:36:52.406Z,3.27
2018-07-13T10:40:55.870Z,3.12
2018-07-13T10:44:59.308Z,3.72
2018-07-13T10:49:02.721Z,3.20
2018-07-13T10:53:06.262Z,3.08
2018-07-13T10:57:09.677Z,3.02
2018-07-13T11:01:13.112Z,3.47
2018-07-13T11:05:16.542Z,3.12
2018-07-13T11:09:19.978Z,3.60
2018-07-13T11:13:23.395Z,5.47
2018-07-13T11:17:26.798Z,3.95
2018-07-13T11:21:30.277Z,3.58
2018-07-13T11:25:33.807Z,3.25
2018-07-13T11:29:37.253Z,3.27
2018-07-13T11:33:40.700Z,2.87
2018-07-13T11:37:44.134Z,2.92
2018-07-13T11:41:47.659Z,2.80
2018-07-13T11:45:51.087Z,2.85
2018-07-13T11:49:54.486Z,3.50
2018-07-13T11:53:58.047Z,2.98
2018-07-13T11:58:01.466Z,2.87
2018-07-13T12:02:04.985Z,2.95
2018-07-13T12:06:08.598Z,2.65
2018-07-13T12:10:12.037Z,3.33
2018-07-13T12:14:15.499Z,3.27
2018-07-13T12:18:18.985Z,3.10
2018-07-13T12:22:22.433Z,2.62
2018-07-13T12:26:25.850Z,2.72
2018-07-13T12:30:29.485Z,2.75
2018-07-13T12:34:32.915Z,3.20
2018-07-13T12:38:36.396Z,3.17
2018-07-13T12:42:39.838Z,3.05
2018-07-13T12:46:43.285Z,3.10
2018-07-13T12:50:46.775Z,3.08
2018-07-13T12:54:50.282Z,3.00
2018-07-13T12:58:53.762Z,3.30
2018-07-13T13:02:57.212Z,3.22
2018-07-13T13:07:00.629Z,3.00
2018-07-13T13:11:04.049Z,3.12
2018-07-13T13:15:07.849Z,3.10
2018-07-13T13:19:11.281Z,3.15
2018-07-13T13:23:14.786Z,3.50
2018-07-13T13:27:18.248Z,2.98
2018-07-13T13:31:21.715Z,3.30
2018-07-13T13:35:25.150Z,3.15
2018-07-13T13:39:28.591Z,2.90
2018-07-13T13:43:32.064Z,3.00
2018-07-13T13:47:35.487Z,3.37
2018-07-13T13:51:38.998Z,3.65
2018-07-13T13:55:42.422Z,2.95
2018-07-13T13:59:45.900Z,2.52
2018-07-13T14:03:49.396Z,2.62
2018-07-13T14:07:52.810Z,2.60
2018-07-13T14:11:56.287Z,2.60
2018-07-13T14:15:59.709Z,2.40
2018-07-13T14:20:03.123Z,2.20
2018-07-13T14:24:06.648Z,2.50
2018-07-13T14:28:10.094Z,2.58
2018-07-13T14:32:13.509Z,3.95
2018-07-13T14:36:16.976Z,3.55
2018-07-13T14:40:20.421Z,3.65
2018-07-13T14:44:23.814Z,3.25
2018-07-13T14:48:27.278Z,3.55
2018-07-13T14:52:30.925Z,4.00
2018-07-13T14:56:34.521Z,4.00
2018-07-13T15:00:37.931Z,3.92
2018-07-13T15:04:41.420Z,3.85
2018-07-13T15:08:44.897Z,4.10
2018-07-13T15:12:48.313Z,4.40
2018-07-13T15:16:51.779Z,3.60
2018-07-13T15:20:55.210Z,3.20
2018-07-13T15:24:58.678Z,3.60
2018-07-13T15:29:02.085Z,3.35
2018-07-13T15:33:05.561Z,3.70
2018-07-13T15:37:09.002Z,3.37
2018-07-13T15:41:12.416Z,3.65
2018-07-13T15:45:15.851Z,3.45
2018-07-13T15:49:19.306Z,3.60
2018-07-13T15:53:22.743Z,3.50
2018-07-13T15:57:26.178Z,3.62
2018-07-13T16:01:29.594Z,4.05
2018-07-13T16:05:33.077Z,3.50
2018-07-13T16:09:36.510Z,3.65
2018-07-13T16:13:39.937Z,3.70
2018-07-13T16:17:43.620Z,3.20
2018-07-13T16:21:47.036Z,3.80
2018-07-13T16:25:50.622Z,3.67
2018-07-13T16:29:54.057Z,3.40
2018-07-13T16:33:57.532Z,3.50
2018-07-13T16:38:00.947Z,3.30
2018-07-13T16:42:04.365Z,3.50
2018-07-13T16:46:07.809Z,4.25
2018-07-13T16:50:11.224Z,4.55
2018-07-13T16:54:14.738Z,3.72
2018-07-13T16:58:18.178Z,3.02
2018-07-13T17:02:21.636Z,3.10
2018-07-13T17:06:25.092Z,3.35
2018-07-13T17:10:28.517Z,3.33
2018-07-13T17:14:31.966Z,3.50
2018-07-13T17:18:35.399Z,3.42
2018-07-13T17:22:38.855Z,4.10
2018-07-13T17:26:42.288Z,4.50
2018-07-13T17:30:45.699Z,4.60
2018-07-13T17:34:49.191Z,4.40
2018-07-13T17:38:52.625Z,4.00
2018-07-13T17:42:56.113Z,3.50
2018-07-13T17:46:59.508Z,3.33
2018-07-13T17:51:02.924Z,3.55
2018-07-13T17:55:06.375Z,3.65
2018-07-13T17:59:09.833Z,3.67
2018-07-13T18:03:13.287Z,4.05
2018-07-13T18:07:16.824Z,3.40
2018-07-13T18:11:20.282Z,3.72
2018-07-13T18:15:23.934Z,3.40
2018-07-13T18:19:27.393Z,3.50
2018-07-13T18:23:30.833Z,3.72
2018-07-13T18:27:34.254Z,3.50
2018-07-13T18:31:37.676Z,3.80
2018-07-13T18:35:41.178Z,3.60
2018-07-13T18:39:44.704Z,3.60
2018-07-13T18:43:48.193Z,3.60
2018-07-13T18:47:52.000Z,3.50
2018-07-13T18:51:55.772Z,3.60
2018-07-13T18:55:59.239Z,3.90
2018-07-13T19:00:02.637Z,3.47
2018-07-13T19:04:06.099Z,3.55
2018-07-13T19:08:09.537Z,3.65
2018-07-13T19:12:13.006Z,3.52
2018-07-13T19:16:16.437Z,4.30
2018-07-13T19:20:19.952Z,4.17
2018-07-13T19:24:23.414Z,4.55
2018-07-13T19:28:26.839Z,4.50
2018-07-13T19:32:30.423Z,4.28
2018-07-13T19:36:33.932Z,3.95
2018-07-13T19:40:37.348Z,4.20
2018-07-13T19:44:41.032Z,3.70
2018-07-13T19:48:44.464Z,3.30
2018-07-13T19:52:48.260Z,3.62
2018-07-13T19:56:51.691Z,3.30
2018-07-13T20:00:55.118Z,3.40
2018-07-13T20:04:58.545Z,3.40
2018-07-13T20:09:02.041Z,3.37
2018-07-13T20:13:05.462Z,3.20
2018-07-13T20:17:08.905Z,3.27
2018-07-13T20:21:12.343Z,3.33
2018-07-13T20:25:15.801Z,3.45
2018-07-13T20:29:19.304Z,3.55
2018-07-13T20:33:22.762Z,3.52
2018-07-13T20:37:26.207Z,3.50
2018-07-13T20:41:29.724Z,3.70
2018-07-13T20:45:33.231Z,3.80
2018-07-13T20:49:36.657Z,4.28
2018-07-13T20:53:40.101Z,3.60
2018-07-13T20:57:43.540Z,4.10
2018-07-13T21:01:47.000Z,4.05
2018-07-13T21:05:50.406Z,4.05
2018-07-13T21:09:53.835Z,4.00
2018-07-13T21:13:57.282Z,3.98
2018-07-13T21:18:00.705Z,4.00
2018-07-13T21:22:04.113Z,3.42
2018-07-13T21:26:07.539Z,3.83
2018-07-13T21:30:10.987Z,3.47
2018-07-13T21:34:14.437Z,3.60
2018-07-13T21:38:17.917Z,3.67
2018-07-13T21:42:21.395Z,3.72
2018-07-13T21:46:24.910Z,4.33
2018-07-13T21:50:28.364Z,3.90
2018-07-13T21:54:31.799Z,4.03
2018-07-13T21:58:35.217Z,3.90
2018-07-13T22:02:38.753Z,4.08
2018-07-13T22:06:42.318Z,4.10
2018-07-13T22:10:45.804Z,3.92
2018-07-13T22:14:49.270Z,4.22
2018-07-13T22:18:52.716Z,4.30
2018-07-13T22:22:56.152Z,4.20
2018-07-13T22:26:59.618Z,4.10
2018-07-13T22:31:03.089Z,4.50
2018-07-13T22:35:06.694Z,4.12
2018-07-13T22:39:10.121Z,4.55
2018-07-13T22:43:13.547Z,4.57
2018-07-13T22:47:16.987Z,4.60
2018-07-13T22:51:20.467Z,4.40
2018-07-13T22:55:24.004Z,4.33
2018-07-13T22:59:27.487Z,4.62
2018-07-13T23:03:32.006Z,4.60
2018-07-13T23:07:35.442Z,4.60
2018-07-13T23:11:38.910Z,4.72
2018-07-13T23:15:42.381Z,4.33
2018-07-13T23:19:45.846Z,4.60
2018-07-13T23:23:49.260Z,4.33
2018-07-13T23:27:52.695Z,4.37
2018-07-13T23:31:55.123Z,4.10
2018-07-13T23:35:58.577Z,4.20
2018-07-13T23:40:02.006Z,4.43
2018-07-13T23:44:05.443Z,4.23
2018-07-13T23:48:08.855Z,4.50
2018-07-13T23:52:12.338Z,4.37
2018-07-13T23:56:15.849Z,4.17
